createdAt,value
2018-10-11T00:01:28.784Z,35.90
2018-10-11T00:03:57.143Z,38.70
2018-10-11T00:06:25.464Z,38.83
2018-10-11T00:08:53.835Z,43.43
2018-10-11T00:11:22.148Z,37.93
2018-10-11T00:13:51.740Z,44.00
2018-10-11T00:16:20.052Z,36.50
2018-10-11T00:18:48.436Z,38.07
2018-10-11T00:21:16.689Z,38.17
2018-10-11T00:23:45.002Z,38.33
2018-10-11T00:26:13.374Z,38.80
2018-10-11T00:28:41.797Z,42.87
2018-10-11T00:31:10.163Z,40.27
2018-10-11T00:33:38.517Z,39.47
2018-10-11T00:36:07.144Z,38.50
2018-10-11T00:38:35.509Z,36.30
2018-10-11T00:41:03.840Z,37.27
2018-10-11T00:43:32.265Z,37.60
2018-10-11T00:46:00.620Z,39.20
2018-10-11T00:48:28.964Z,40.00
2018-10-11T00:50:57.394Z,41.67
2018-10-11T00:53:26.097Z,40.93
2018-10-11T00:55:54.412Z,39.17
2018-10-11T00:58:22.786Z,39.13
2018-10-11T01:00:51.250Z,37.70
2018-10-11T01:03:19.670Z,38.43
2018-10-11T01:05:48.007Z,38.40
2018-10-11T01:08:16.525Z,35.30
2018-10-11T01:10:44.949Z,37.27
2018-10-11T01:13:13.230Z,38.40
2018-10-11T01:15:41.491Z,36.87
2018-10-11T01:18:09.788Z,36.50
2018-10-11T01:20:38.124Z,38.10
2018-10-11T01:23:06.546Z,36.20
2018-10-11T01:25:34.918Z,40.93
2018-10-11T01:28:03.373Z,40.13
2018-10-11T01:30:31.774Z,39.43
2018-10-11T01:33:00.058Z,40.97
2018-10-11T01:35:28.591Z,44.03
2018-10-11T01:37:56.887Z,40.57
2018-10-11T01:40:25.513Z,44.03
2018-10-11T01:43:08.632Z,47.27
2018-10-11T01:45:36.984Z,46.43
2018-10-11T01:48:05.425Z,44.77
2018-10-11T01:50:33.737Z,43.97
2018-10-11T01:53:05.238Z,44.93
2018-10-11T01:55:33.882Z,46.47
2018-10-11T01:58:02.224Z,45.33
2018-10-11T02:00:30.613Z,45.30
2018-10-11T02:02:59.627Z,46.20
2018-10-11T02:05:28.766Z,41.87
2018-10-11T02:07:58.185Z,41.30
2018-10-11T02:10:27.648Z,39.53
2018-10-11T02:12:56.539Z,41.50
2018-10-11T02:15:25.405Z,36.90
2018-10-11T02:17:53.698Z,40.83
2018-10-11T02:20:21.974Z,44.07
2018-10-11T02:22:50.310Z,43.87
2018-10-11T02:25:18.617Z,45.00
2018-10-11T02:27:47.030Z,42.30
2018-10-11T02:30:15.358Z,45.20
2018-10-11T02:32:43.903Z,43.07
2018-10-11T02:35:12.685Z,42.37
2018-10-11T02:37:41.432Z,43.47
2018-10-11T02:40:09.854Z,42.83
2018-10-11T02:42:38.173Z,43.50
2018-10-11T02:45:06.693Z,48.10
2018-10-11T02:47:35.187Z,51.47
2018-10-11T02:50:03.696Z,51.80
2018-10-11T02:52:31.994Z,47.97
2018-10-11T02:55:00.300Z,42.80
2018-10-11T02:57:39.885Z,45.43
2018-10-11T03:00:08.246Z,47.07
2018-10-11T03:02:37.904Z,47.37
2018-10-11T03:05:16.695Z,44.63
2018-10-11T03:07:45.313Z,46.53
2018-10-11T03:10:13.754Z,46.97
2018-10-11T03:12:42.085Z,51.67
2018-10-11T03:15:10.460Z,46.17
2018-10-11T03:17:38.744Z,46.50
2018-10-11T03:20:07.138Z,47.03
2018-10-11T03:22:35.564Z,47.50
2018-10-11T03:25:03.941Z,49.27
2018-10-11T03:27:32.271Z,53.53
2018-10-11T03:30:00.662Z,52.10
2018-10-11T03:32:29.000Z,49.80
2018-10-11T03:34:57.428Z,51.00
2018-10-11T03:37:25.905Z,52.27
2018-10-11T03:39:54.236Z,54.43
2018-10-11T03:42:22.543Z,52.10
2018-10-11T03:44:50.872Z,54.07
2018-10-11T03:47:19.276Z,53.00
2018-10-11T03:49:47.578Z,54.10
2018-10-11T03:52:15.880Z,52.30
2018-10-11T03:54:44.321Z,57.40
2018-10-11T03:57:12.621Z,53.53
2018-10-11T03:59:41.110Z,53.73
2018-10-11T04:02:09.570Z,55.27
2018-10-11T04:04:37.904Z,53.90
2018-10-11T04:07:06.401Z,57.80
2018-10-11T04:09:34.819Z,65.50
2018-10-11T04:12:03.092Z,64.37
2018-10-11T04:14:31.415Z,63.67
2018-10-11T04:16:59.717Z,68.90
2018-10-11T04:19:28.048Z,67.83
2018-10-11T04:21:56.544Z,60.00
2018-10-11T04:24:24.870Z,64.30
2018-10-11T04:26:53.186Z,61.63
2018-10-11T04:29:21.590Z,60.20
2018-10-11T04:31:50.835Z,60.87
2018-10-11T04:34:19.144Z,61.67
2018-10-11T04:36:47.588Z,68.47
2018-10-11T04:39:15.848Z,62.13
2018-10-11T04:41:44.229Z,64.77
2018-10-11T04:44:12.527Z,58.60
2018-10-11T04:46:41.028Z,57.13
2018-10-11T04:49:09.492Z,58.00
2018-10-11T04:51:38.010Z,64.83
2018-10-11T04:54:06.280Z,60.60
2018-10-11T04:56:34.723Z,66.63
2018-10-11T04:59:03.070Z,68.13
2018-10-11T05:01:31.391Z,59.47
2018-10-11T05:03:59.667Z,66.13
2018-10-11T05:06:27.955Z,55.67
2018-10-11T05:08:56.452Z,54.50
2018-10-11T05:11:24.900Z,57.83
2018-10-11T05:13:53.831Z,56.33
2018-10-11T05:16:22.342Z,60.57
2018-10-11T05:18:56.247Z,61.30
2018-10-11T05:21:24.798Z,59.43
2018-10-11T05:23:53.319Z,62.23
2018-10-11T05:26:21.782Z,64.83
2018-10-11T05:28:50.088Z,63.27
2018-10-11T05:31:18.580Z,61.70
2018-10-11T05:33:46.954Z,64.73
2018-10-11T05:36:15.599Z,59.03
2018-10-11T05:38:44.538Z,65.70
2018-10-11T05:41:13.180Z,58.13
2018-10-11T05:43:41.516Z,56.43
2018-10-11T05:46:13.773Z,54.23
2018-10-11T05:48:42.157Z,53.53
2018-10-11T05:51:10.455Z,57.30
2018-10-11T05:53:39.417Z,48.73
2018-10-11T05:56:07.821Z,52.37
2018-10-11T05:58:36.344Z,50.57
2018-10-11T06:01:04.834Z,45.40
2018-10-11T06:03:33.155Z,50.50
2018-10-11T06:06:01.498Z,52.57
2018-10-11T06:08:29.863Z,51.17
2018-10-11T06:10:58.239Z,56.07
2018-10-11T06:13:26.579Z,53.70
2018-10-11T06:15:54.981Z,54.93
2018-10-11T06:18:23.372Z,57.43
2018-10-11T06:20:51.808Z,55.13
2018-10-11T06:23:20.127Z,59.60
2018-10-11T06:25:48.460Z,63.73
2018-10-11T06:28:16.841Z,74.33
2018-10-11T06:30:45.275Z,65.60
2018-10-11T06:33:13.664Z,57.10
2018-10-11T06:35:42.095Z,55.80
2018-10-11T06:38:10.452Z,56.17
2018-10-11T06:40:38.896Z,53.60
2018-10-11T06:43:07.495Z,50.90
2018-10-11T06:45:35.916Z,59.37
2018-10-11T06:48:06.840Z,56.83
2018-10-11T06:50:35.326Z,56.57
2018-10-11T06:53:04.066Z,56.73
2018-10-11T06:55:32.381Z,60.40
2018-10-11T06:58:00.782Z,55.33
2018-10-11T07:00:29.108Z,57.30
2018-10-11T07:02:57.394Z,56.57
2018-10-11T07:05:25.842Z,54.27
2018-10-11T07:07:54.143Z,55.87
2018-10-11T07:10:22.739Z,52.17
2018-10-11T07:12:51.106Z,55.50
2018-10-11T07:15:19.391Z,54.17
2018-10-11T07:17:47.878Z,54.37
2018-10-11T07:20:16.324Z,54.70
2018-10-11T07:22:45.080Z,52.73
2018-10-11T07:25:13.483Z,51.63
2018-10-11T07:27:43.395Z,47.50
2018-10-11T07:30:11.699Z,50.70
2018-10-11T07:32:40.138Z,47.93
2018-10-11T07:35:08.455Z,52.00
2018-10-11T07:37:36.697Z,47.13
2018-10-11T07:40:05.360Z,56.80
2018-10-11T07:42:33.623Z,43.13
2018-10-11T07:45:02.132Z,42.20
2018-10-11T07:47:30.636Z,43.17
2018-10-11T07:49:58.940Z,37.10
2018-10-11T07:52:27.534Z,42.73
2018-10-11T07:54:55.855Z,43.63
2018-10-11T07:57:24.232Z,44.27
2018-10-11T07:59:52.507Z,50.27
2018-10-11T08:02:20.788Z,41.80
2018-10-11T08:04:49.075Z,45.40
2018-10-11T08:07:17.573Z,41.03
2018-10-11T08:09:45.842Z,43.83
2018-10-11T08:12:14.452Z,42.90
2018-10-11T08:14:42.732Z,44.97
2018-10-11T08:17:11.377Z,44.07
2018-10-11T08:19:39.502Z,43.50
2018-10-11T08:22:07.798Z,41.17
2018-10-11T08:24:36.123Z,43.33
2018-10-11T08:27:04.583Z,41.13
2018-10-11T08:29:32.870Z,40.10
2018-10-11T08:32:01.160Z,42.40
2018-10-11T08:34:29.460Z,36.63
2018-10-11T08:36:57.771Z,38.33
2018-10-11T08:39:26.228Z,72.97
2018-10-11T08:41:54.468Z,40.50
2018-10-11T08:44:22.817Z,40.57
2018-10-11T08:46:51.218Z,40.33
2018-10-11T08:49:19.564Z,40.37
2018-10-11T08:51:48.060Z,37.93
2018-10-11T08:54:21.673Z,41.23
2018-10-11T08:56:49.917Z,36.60
2018-10-11T08:59:18.515Z,34.07
2018-10-11T09:01:46.730Z,33.63
2018-10-11T09:04:15.123Z,36.37
2018-10-11T09:06:43.367Z,34.43
2018-10-11T09:09:11.790Z,30.90
2018-10-11T09:11:40.162Z,28.53
2018-10-11T09:14:08.650Z,32.77
2018-10-11T09:16:37.124Z,29.70
2018-10-11T09:19:05.439Z,34.13
2018-10-11T09:21:33.747Z,35.60
2018-10-11T09:24:02.022Z,28.40
2018-10-11T09:26:30.368Z,32.07
2018-10-11T09:28:58.665Z,29.60
2018-10-11T09:31:26.988Z,29.03
2018-10-11T09:33:55.263Z,28.00
2018-10-11T09:36:23.676Z,25.37
2018-10-11T09:38:52.342Z,29.33
2018-10-11T09:41:20.669Z,28.77
2018-10-11T09:43:49.097Z,26.70
2018-10-11T09:46:17.654Z,28.37
2018-10-11T09:48:46.088Z,25.47
2018-10-11T09:51:14.298Z,25.90
2018-10-11T09:53:42.723Z,26.17
2018-10-11T09:56:11.030Z,24.07
2018-10-11T09:58:39.399Z,20.17
2018-10-11T10:01:12.984Z,17.93
2018-10-11T10:03:41.501Z,22.43
2018-10-11T10:06:09.913Z,18.87
2018-10-11T10:08:38.263Z,22.00
2018-10-11T10:11:06.653Z,20.73
2018-10-11T10:13:35.008Z,20.63
2018-10-11T10:16:03.296Z,21.43
2018-10-11T10:18:31.731Z,23.17
2018-10-11T10:21:00.090Z,25.97
2018-10-11T10:23:28.309Z,19.37
2018-10-11T10:25:56.615Z,17.70
2018-10-11T10:28:24.882Z,20.30
2018-10-11T10:30:54.654Z,17.90
2018-10-11T10:33:24.452Z,17.43
2018-10-11T10:35:53.140Z,20.70
2018-10-11T10:38:22.684Z,21.20
2018-10-11T10:40:51.099Z,21.50
2018-10-11T10:43:19.502Z,19.83
2018-10-11T10:45:47.744Z,20.17
2018-10-11T10:48:16.121Z,19.48
2018-10-11T10:50:44.402Z,17.00
2018-10-11T10:53:12.795Z,17.67
2018-10-11T10:55:41.214Z,18.87
2018-10-11T10:58:09.453Z,15.72
2018-10-11T11:00:37.854Z,15.43
2018-10-11T11:03:06.176Z,20.40
2018-10-11T11:05:34.494Z,17.00
2018-10-11T11:08:02.806Z,22.70
2018-10-11T11:10:31.163Z,16.62
2018-10-11T11:12:59.505Z,18.45
2018-10-11T11:15:27.874Z,23.90
2018-10-11T11:17:56.186Z,22.20
2018-10-11T11:20:24.856Z,22.32
2018-10-11T11:22:53.266Z,18.17
2018-10-11T11:25:22.021Z,15.98
2018-10-11T11:27:50.324Z,19.80
2018-10-11T11:30:18.617Z,20.88
2018-10-11T11:32:46.878Z,16.70
2018-10-11T11:35:15.972Z,19.40
2018-10-11T11:37:44.318Z,17.50
2018-10-11T11:40:12.611Z,16.02
2018-10-11T11:42:40.943Z,15.00
2018-10-11T11:45:09.311Z,15.10
2018-10-11T11:47:37.853Z,17.37
2018-10-11T11:50:06.268Z,11.48
2018-10-11T11:52:34.557Z,16.40
2018-10-11T11:55:02.941Z,16.23
2018-10-11T11:57:31.303Z,18.30
2018-10-11T11:59:59.646Z,14.00
2018-10-11T12:02:27.952Z,13.03
2018-10-11T12:04:56.283Z,13.80
2018-10-11T12:07:24.688Z,16.57
2018-10-11T12:09:52.949Z,11.10
2018-10-11T12:13:24.531Z,10.35
2018-10-11T12:15:52.961Z,11.68
2018-10-11T12:18:22.144Z,11.68
2018-10-11T12:20:50.446Z,12.07
2018-10-11T12:23:18.774Z,10.63
2018-10-11T12:25:47.177Z,13.70
2018-10-11T12:28:15.495Z,13.13
2018-10-11T12:30:43.953Z,14.23
2018-10-11T12:33:12.241Z,12.90
2018-10-11T12:35:40.714Z,9.93
2018-10-11T12:38:09.016Z,14.53
2018-10-11T12:40:37.470Z,10.60
2018-10-11T12:43:06.096Z,10.35
2018-10-11T12:45:34.435Z,10.60
2018-10-11T12:48:02.732Z,11.85
2018-10-11T12:50:31.150Z,12.73
2018-10-11T12:52:59.522Z,11.70
2018-10-11T12:55:27.774Z,10.00
2018-10-11T12:57:56.070Z,11.73
2018-10-11T13:00:24.361Z,18.67
2018-10-11T13:02:52.750Z,13.32
2018-10-11T13:05:20.935Z,10.40
2018-10-11T13:07:49.247Z,27.30
2018-10-11T13:10:17.611Z,10.90
2018-10-11T13:12:45.922Z,13.90
2018-10-11T13:15:14.346Z,11.55
2018-10-11T13:17:43.647Z,12.65
2018-10-11T13:20:11.082Z,10.93
2018-10-11T13:22:39.544Z,11.75
2018-10-11T13:25:08.008Z,20.25
2018-10-11T13:27:36.491Z,11.53
2018-10-11T13:30:04.869Z,10.25
2018-10-11T13:32:33.247Z,15.50
2018-10-11T13:35:01.785Z,14.07
2018-10-11T13:37:30.262Z,19.57
2018-10-11T13:39:58.800Z,11.03
2018-10-11T13:42:27.307Z,11.08
2018-10-11T13:44:55.795Z,10.40
2018-10-11T13:47:24.073Z,12.47
2018-10-11T13:49:52.412Z,10.18
2018-10-11T13:52:22.514Z,13.45
2018-10-11T13:54:49.135Z,9.60
2018-10-11T13:57:17.585Z,11.22
2018-10-11T13:59:45.888Z,12.93
2018-10-11T14:02:14.221Z,14.60
2018-10-11T14:04:42.619Z,19.30
2018-10-11T14:07:10.836Z,14.55
2018-10-11T14:09:39.290Z,11.18
2018-10-11T14:12:07.633Z,9.85
2018-10-11T14:14:36.050Z,9.75
2018-10-11T14:17:04.343Z,12.07
2018-10-11T14:19:32.629Z,8.13
2018-10-11T14:22:00.917Z,10.48
2018-10-11T14:24:29.180Z,10.38
2018-10-11T14:26:57.504Z,9.68
2018-10-11T14:29:25.969Z,8.00
2018-10-11T14:31:54.317Z,12.05
2018-10-11T14:34:22.612Z,9.75
2018-10-11T14:36:51.019Z,11.28
2018-10-11T14:39:19.259Z,8.05
2018-10-11T14:41:47.635Z,14.13
2018-10-11T14:44:15.951Z,9.88
2018-10-11T14:46:44.387Z,10.30
2018-10-11T14:49:12.750Z,13.60
2018-10-11T14:51:44.475Z,14.10
2018-10-11T14:54:10.431Z,9.13
2018-10-11T14:56:38.819Z,9.68
2018-10-11T14:59:07.084Z,9.83
2018-10-11T15:01:35.372Z,8.73
2018-10-11T15:04:03.644Z,7.60
2018-10-11T15:06:32.524Z,7.60
2018-10-11T15:09:00.835Z,7.37
2018-10-11T15:11:29.539Z,7.62
2018-10-11T15:13:57.710Z,8.55
2018-10-11T15:16:26.040Z,7.75
2018-10-11T15:18:54.285Z,8.45
2018-10-11T15:21:22.677Z,7.70
2018-10-11T15:23:50.982Z,10.43
2018-10-11T15:26:19.311Z,8.85
2018-10-11T15:28:47.673Z,9.38
2018-10-11T15:31:16.203Z,13.38
2018-10-11T15:33:44.450Z,9.70
2018-10-11T15:36:12.732Z,8.08
2018-10-11T15:38:41.033Z,8.18
2018-10-11T15:41:09.352Z,8.20
2018-10-11T15:43:37.915Z,10.72
2018-10-11T15:46:06.974Z,10.10
2018-10-11T15:48:35.228Z,8.25
2018-10-11T15:51:03.720Z,8.83
2018-10-11T15:53:32.162Z,10.28
2018-10-11T15:56:00.522Z,9.48
2018-10-11T15:58:28.876Z,11.97
2018-10-11T16:00:57.108Z,8.08
2018-10-11T16:03:25.673Z,9.58
2018-10-11T16:05:53.932Z,10.55
2018-10-11T16:08:22.212Z,12.53
2018-10-11T16:10:50.733Z,14.07
2018-10-11T16:13:19.121Z,9.63
2018-10-11T16:15:47.499Z,10.78
2018-10-11T16:18:15.881Z,10.57
2018-10-11T16:20:44.178Z,10.53
2018-10-11T16:23:12.511Z,9.70
2018-10-11T16:25:40.760Z,8.70
2018-10-11T16:28:09.312Z,10.78
2018-10-11T16:30:38.154Z,9.90
2018-10-11T16:33:06.861Z,10.97
2018-10-11T16:35:35.156Z,8.70
2018-10-11T16:38:03.495Z,9.20
2018-10-11T16:40:31.828Z,8.33
2018-10-11T16:43:00.240Z,10.10
2018-10-11T16:45:28.661Z,9.23
2018-10-11T16:47:57.097Z,10.53
2018-10-11T16:50:25.469Z,9.47
2018-10-11T16:52:53.837Z,7.20
2018-10-11T16:55:22.193Z,8.83
2018-10-11T16:57:50.513Z,11.80
2018-10-11T17:00:18.708Z,7.90
2018-10-11T17:02:47.254Z,12.80
2018-10-11T17:05:15.552Z,15.80
2018-10-11T17:07:43.908Z,11.13
2018-10-11T17:10:12.213Z,11.83
2018-10-11T17:12:40.574Z,8.83
2018-10-11T17:15:09.001Z,9.50
2018-10-11T17:17:37.326Z,10.80
2018-10-11T17:20:05.674Z,13.27
2018-10-11T17:22:34.146Z,10.90
2018-10-11T17:25:02.784Z,12.93
2018-10-11T17:27:31.456Z,10.63
2018-10-11T17:29:59.838Z,10.37
2018-10-11T17:32:28.228Z,8.63
2018-10-11T17:34:56.649Z,11.33
2018-10-11T17:37:24.952Z,11.07
2018-10-11T17:39:53.483Z,10.77
2018-10-11T17:42:21.862Z,12.67
2018-10-11T17:44:50.274Z,13.20
2018-10-11T17:47:18.612Z,11.67
2018-10-11T17:49:46.980Z,14.93
2018-10-11T17:52:16.090Z,16.37
2018-10-11T17:54:50.091Z,16.70
2018-10-11T17:57:18.719Z,17.80
2018-10-11T17:59:47.678Z,17.77
2018-10-11T18:02:16.763Z,17.33
2018-10-11T18:04:45.211Z,15.07
2018-10-11T18:07:14.037Z,14.33
2018-10-11T18:09:42.496Z,15.97
2018-10-11T18:12:10.930Z,16.30
2018-10-11T18:14:39.343Z,19.23
2018-10-11T18:17:08.187Z,15.63
2018-10-11T18:19:36.512Z,14.00
2018-10-11T18:22:05.056Z,15.43
2018-10-11T18:24:33.440Z,16.27
2018-10-11T18:27:02.082Z,14.00
2018-10-11T18:29:31.507Z,13.67
2018-10-11T18:32:01.568Z,12.30
2018-10-11T18:34:30.028Z,14.90
2018-10-11T18:36:58.386Z,14.27
2018-10-11T18:39:26.784Z,16.90
2018-10-11T18:41:55.094Z,13.10
2018-10-11T18:44:23.525Z,13.43
2018-10-11T18:46:51.807Z,16.03
2018-10-11T18:49:20.138Z,17.87
2018-10-11T18:51:48.467Z,17.03
2018-10-11T18:54:16.782Z,15.03
2018-10-11T18:56:45.133Z,15.47
2018-10-11T18:59:13.415Z,13.13
2018-10-11T19:01:41.652Z,18.63
2018-10-11T19:04:09.996Z,16.27
2018-10-11T19:06:38.551Z,18.07
2018-10-11T19:09:08.346Z,17.40
2018-10-11T19:11:37.103Z,16.87
2018-10-11T19:14:05.521Z,18.23
2018-10-11T19:16:33.955Z,17.57
2018-10-11T19:19:02.205Z,15.13
2018-10-11T19:21:31.362Z,14.43
2018-10-11T19:23:59.742Z,13.60
2018-10-11T19:26:28.350Z,15.13
2018-10-11T19:28:56.907Z,16.27
2018-10-11T19:31:25.264Z,15.50
2018-10-11T19:33:53.840Z,15.10
2018-10-11T19:36:22.258Z,13.67
2018-10-11T19:38:50.622Z,15.60
2018-10-11T19:41:18.981Z,15.07
2018-10-11T19:43:47.287Z,16.40
2018-10-11T19:46:15.732Z,13.33
2018-10-11T19:48:44.123Z,16.03
2018-10-11T19:51:12.591Z,14.00
2018-10-11T19:53:41.025Z,14.77
2018-10-11T19:56:09.441Z,14.43
2018-10-11T19:58:37.854Z,13.53
2018-10-11T20:01:06.212Z,13.60
2018-10-11T20:03:35.319Z,15.10
2018-10-11T20:06:03.715Z,13.77
2018-10-11T20:08:32.072Z,19.80
2018-10-11T20:11:00.341Z,23.47
2018-10-11T20:13:28.850Z,15.83
2018-10-11T20:15:57.428Z,13.77
2018-10-11T20:18:25.672Z,12.10
2018-10-11T20:20:54.068Z,15.73
2018-10-11T20:23:22.676Z,14.37
2018-10-11T20:25:51.048Z,18.30
2018-10-11T20:28:19.483Z,13.43
2018-10-11T20:30:47.772Z,15.83
2018-10-11T20:33:16.260Z,14.30
2018-10-11T20:35:44.540Z,14.87
2018-10-11T20:38:13.062Z,15.20
2018-10-11T20:40:41.672Z,16.17
2018-10-11T20:43:10.175Z,16.63
2018-10-11T20:45:38.783Z,13.97
2018-10-11T20:48:07.155Z,16.10
2018-10-11T20:50:35.595Z,16.10
2018-10-11T20:53:03.977Z,17.20
2018-10-11T20:55:32.408Z,16.03
2018-10-11T20:58:00.875Z,14.20
2018-10-11T21:00:29.430Z,15.27
2018-10-11T21:02:58.863Z,19.40
2018-10-11T21:05:27.376Z,16.13
2018-10-11T21:07:56.091Z,17.07
2018-10-11T21:10:24.966Z,15.43
2018-10-11T21:12:53.212Z,16.60
2018-10-11T21:15:21.681Z,17.07
2018-10-11T21:17:50.152Z,16.90
2018-10-11T21:20:18.731Z,15.37
2018-10-11T21:22:50.340Z,17.70
2018-10-11T21:25:18.768Z,17.07
2018-10-11T21:27:47.022Z,15.37
2018-10-11T21:30:15.536Z,19.30
2018-10-11T21:32:45.238Z,18.30
2018-10-11T21:35:13.628Z,15.37
2018-10-11T21:37:42.009Z,15.53
2018-10-11T21:40:10.472Z,15.67
2018-10-11T21:42:38.902Z,15.93
2018-10-11T21:45:07.212Z,18.37
2018-10-11T21:47:35.675Z,16.20
2018-10-11T21:50:04.298Z,16.00
2018-10-11T21:52:32.613Z,17.63
2018-10-11T21:55:00.927Z,19.60
2018-10-11T21:57:29.176Z,18.43
2018-10-11T21:59:57.534Z,18.60
2018-10-11T22:02:25.860Z,18.53
2018-10-11T22:04:54.114Z,19.83
2018-10-11T22:07:22.480Z,18.77
2018-10-11T22:09:50.799Z,16.70
2018-10-11T22:12:19.105Z,18.93
2018-10-11T22:14:47.528Z,18.93
2018-10-11T22:17:15.836Z,17.87
2018-10-11T22:19:44.267Z,16.90
2018-10-11T22:22:12.624Z,20.67
2018-10-11T22:24:41.032Z,19.33
2018-10-11T22:27:09.361Z,17.50
2018-10-11T22:29:37.813Z,20.47
2018-10-11T22:32:06.160Z,19.83
2018-10-11T22:34:34.466Z,18.63
2018-10-11T22:37:03.222Z,17.53
2018-10-11T22:39:31.642Z,17.00
2018-10-11T22:41:59.967Z,16.93
2018-10-11T22:44:28.491Z,16.10
2018-10-11T22:46:56.851Z,17.97
2018-10-11T22:49:25.170Z,17.50
2018-10-11T22:51:53.469Z,16.07
2018-10-11T22:54:21.783Z,15.17
2018-10-11T22:56:50.202Z,19.00
2018-10-11T22:59:18.508Z,15.77
2018-10-11T23:01:47.151Z,15.57
2018-10-11T23:04:15.476Z,15.30
2018-10-11T23:06:44.472Z,18.90
2018-10-11T23:09:12.750Z,19.83
2018-10-11T23:11:41.173Z,16.63
2018-10-11T23:14:09.561Z,15.93
2018-10-11T23:16:38.049Z,16.40
2018-10-11T23:19:06.432Z,18.03
2018-10-11T23:21:35.810Z,17.93
2018-10-11T23:24:04.113Z,16.40
2018-10-11T23:26:32.388Z,16.80
2018-10-11T23:29:00.828Z,20.00
2018-10-11T23:31:29.146Z,14.60
2018-10-11T23:33:57.965Z,13.57
2018-10-11T23:36:26.294Z,15.53
2018-10-11T23:38:54.596Z,14.53
2018-10-11T23:41:22.891Z,15.03
2018-10-11T23:43:51.347Z,14.13
2018-10-11T23:46:19.612Z,14.80
2018-10-11T23:48:47.924Z,15.87
2018-10-11T23:51:16.189Z,14.67
2018-10-11T23:53:44.492Z,16.53
2018-10-11T23:56:13.242Z,17.40
2018-10-11T23:58:41.561Z,16.27
